sensor_id;sensor_type;location;lat;lon;timestamp;pressure;altitude;pressure_sealevel;temperature;humidity
15193;BME280;7697;51.630;7.484;2023-01-25T00:00:39;102943.91;;;2.23;91.81
15193;BME280;7697;51.630;7.484;2023-01-25T00:05:40;102939.69;;;2.20;91.91
15193;BME280;7697;51.630;7.484;2023-01-25T00:10:42;102942.03;;;2.25;92.21
15193;BME280;7697;51.630;7.484;2023-01-25T00:15:45;102925.69;;;2.21;91.37
15193;BME280;7697;51.630;7.484;2023-01-25T00:20:47;102934.47;;;2.20;91.52
15193;BME280;7697;51.630;7.484;2023-01-25T00:25:55;102924.19;;;2.17;91.89
15193;BME280;7697;51.630;7.484;2023-01-25T00:30:59;102919.63;;;2.21;91.90
15193;BME280;7697;51.630;7.484;2023-01-25T00:36:02;102924.19;;;2.17;91.98
15193;BME280;7697;51.630;7.484;2023-01-25T00:41:23;102907.53;;;2.04;91.85
15193;BME280;7697;51.630;7.484;2023-01-25T00:46:27;102894.25;;;2.07;92.25
15193;BME280;7697;51.630;7.484;2023-01-25T00:51:28;102897.63;;;2.09;91.77
15193;BME280;7697;51.630;7.484;2023-01-25T00:56:30;102900.00;;;1.98;91.58
15193;BME280;7697;51.630;7.484;2023-01-25T01:01:33;102890.41;;;1.99;91.51
15193;BME280;7697;51.630;7.484;2023-01-25T01:06:35;102892.69;;;2.05;92.19
15193;BME280;7697;51.630;7.484;2023-01-25T01:11:37;102889.16;;;2.06;91.43
15193;BME280;7697;51.630;7.484;2023-01-25T01:16:41;102879.94;;;1.99;91.33
15193;BME280;7697;51.630;7.484;2023-01-25T01:21:42;102881.38;;;1.88;91.35
15193;BME280;7697;51.630;7.484;2023-01-25T01:26:44;102885.75;;;1.88;92.34
15193;BME280;7697;51.630;7.484;2023-01-25T01:31:49;102893.44;;;1.91;91.90
15193;BME280;7697;51.630;7.484;2023-01-25T01:36:51;102900.09;;;1.81;92.06
15193;BME280;7697;51.630;7.484;2023-01-25T01:41:53;102893.78;;;1.85;91.80
15193;BME280;7697;51.630;7.484;2023-01-25T01:46:57;102898.81;;;1.88;92.38
15193;BME280;7697;51.630;7.484;2023-01-25T01:52:02;102889.34;;;1.87;92.19
15193;BME280;7697;51.630;7.484;2023-01-25T01:57:10;102886.28;;;1.95;91.73
15193;BME280;7697;51.630;7.484;2023-01-25T02:08:13;102880.53;;;2.04;92.50
15193;BME280;7697;51.630;7.484;2023-01-25T02:13:16;102878.50;;;2.09;91.53
15193;BME280;7697;51.630;7.484;2023-01-25T02:18:18;102882.03;;;2.08;91.49
15193;BME280;7697;51.630;7.484;2023-01-25T02:23:25;102878.84;;;2.03;92.12
15193;BME280;7697;51.630;7.484;2023-01-25T02:28:35;102876.31;;;2.01;92.02
15193;BME280;7697;51.630;7.484;2023-01-25T02:33:38;102892.19;;;1.82;91.76
15193;BME280;7697;51.630;7.484;2023-01-25T02:38:42;102890.16;;;1.72;91.57
15193;BME280;7697;51.630;7.484;2023-01-25T02:43:47;102891.84;;;1.73;91.87
15193;BME280;7697;51.630;7.484;2023-01-25T02:48:48;102892.97;;;1.69;91.78
15193;BME280;7697;51.630;7.484;2023-01-25T02:53:50;102890.16;;;1.72;92.38
15193;BME280;7697;51.630;7.484;2023-01-25T02:58:53;102881.91;;;1.79;92.25
15193;BME280;7697;51.630;7.484;2023-01-25T03:03:55;102880.47;;;1.74;92.00
15193;BME280;7697;51.630;7.484;2023-01-25T03:08:57;102874.50;;;1.72;92.04
15193;BME280;7697;51.630;7.484;2023-01-25T03:14:00;102862.19;;;1.74;92.40
15193;BME280;7697;51.630;7.484;2023-01-25T03:19:01;102863.19;;;1.71;91.70
15193;BME280;7697;51.630;7.484;2023-01-25T03:24:03;102851.19;;;1.69;92.31
15193;BME280;7697;51.630;7.484;2023-01-25T03:29:06;102849.75;;;1.79;91.78
15193;BME280;7697;51.630;7.484;2023-01-25T03:34:08;102839.28;;;1.63;91.88
15193;BME280;7697;51.630;7.484;2023-01-25T03:39:10;102836.25;;;1.55;92.04
15193;BME280;7697;51.630;7.484;2023-01-25T03:44:13;102806.38;;;1.61;93.25
15193;BME280;7697;51.630;7.484;2023-01-25T03:49:14;102807.44;;;1.72;92.74
15193;BME280;7697;51.630;7.484;2023-01-25T03:54:17;102802.13;;;1.74;91.79
15193;BME280;7697;51.630;7.484;2023-01-25T03:59:20;102794.38;;;1.72;93.30
15193;BME280;7697;51.630;7.484;2023-01-25T04:04:22;102791.69;;;1.74;92.50
15193;BME280;7697;51.630;7.484;2023-01-25T04:09:24;102781.00;;;1.63;91.97
15193;BME280;7697;51.630;7.484;2023-01-25T04:14:27;102785.66;;;1.58;93.22
15193;BME280;7697;51.630;7.484;2023-01-25T04:19:28;102767.38;;;1.58;92.87
15193;BME280;7697;51.630;7.484;2023-01-25T04:24:30;102770.91;;;1.57;92.82
15193;BME280;7697;51.630;7.484;2023-01-25T04:29:34;102760.53;;;1.55;93.45
15193;BME280;7697;51.630;7.484;2023-01-25T04:34:35;102762.75;;;1.47;93.01
15193;BME280;7697;51.630;7.484;2023-01-25T04:39:37;102763.03;;;1.42;93.92
15193;BME280;7697;51.630;7.484;2023-01-25T04:44:40;102756.28;;;1.38;93.75
15193;BME280;7697;51.630;7.484;2023-01-25T04:49:42;102744.44;;;1.33;94.26
15193;BME280;7697;51.630;7.484;2023-01-25T04:54:43;102744.50;;;1.31;94.56
15193;BME280;7697;51.630;7.484;2023-01-25T04:59:46;102748.81;;;1.32;94.32
15193;BME280;7697;51.630;7.484;2023-01-25T05:04:48;102748.88;;;1.31;94.36
15193;BME280;7697;51.630;7.484;2023-01-25T05:09:50;102751.56;;;1.29;94.65
15193;BME280;7697;51.630;7.484;2023-01-25T05:14:53;102756.44;;;1.35;94.31
15193;BME280;7697;51.630;7.484;2023-01-25T05:19:54;102755.72;;;1.33;94.83
15193;BME280;7697;51.630;7.484;2023-01-25T05:24:56;102761.00;;;1.32;94.64
15193;BME280;7697;51.630;7.484;2023-01-25T05:29:59;102741.91;;;1.31;95.46
15193;BME280;7697;51.630;7.484;2023-01-25T05:35:01;102759.81;;;1.37;95.49
15193;BME280;7697;51.630;7.484;2023-01-25T05:40:03;102752.59;;;1.42;94.90
15193;BME280;7697;51.630;7.484;2023-01-25T05:45:08;102755.09;;;1.44;95.53
15193;BME280;7697;51.630;7.484;2023-01-25T05:50:10;102746.84;;;1.52;95.07
15193;BME280;7697;51.630;7.484;2023-01-25T05:55:12;102752.22;;;1.48;94.59
15193;BME280;7697;51.630;7.484;2023-01-25T06:00:16;102754.84;;;1.48;95.00
15193;BME280;7697;51.630;7.484;2023-01-25T06:05:18;102740.78;;;1.35;94.98
15193;BME280;7697;51.630;7.484;2023-01-25T06:10:19;102741.53;;;1.37;95.56
15193;BME280;7697;51.630;7.484;2023-01-25T06:15:22;102742.38;;;1.38;95.44
15193;BME280;7697;51.630;7.484;2023-01-25T06:20:24;102738.56;;;1.43;95.50
15193;BME280;7697;51.630;7.484;2023-01-25T06:25:26;102738.34;;;1.48;95.02
15193;BME280;7697;51.630;7.484;2023-01-25T06:30:29;102739.19;;;1.48;95.55
15193;BME280;7697;51.630;7.484;2023-01-25T06:35:31;102749.25;;;1.55;95.64
15193;BME280;7697;51.630;7.484;2023-01-25T06:40:33;102746.09;;;1.49;94.60
15193;BME280;7697;51.630;7.484;2023-01-25T06:45:36;102743.78;;;1.43;94.71
15193;BME280;7697;51.630;7.484;2023-01-25T06:50:38;102751.97;;;1.37;94.77
15193;BME280;7697;51.630;7.484;2023-01-25T06:55:39;102740.88;;;1.34;94.77
15193;BME280;7697;51.630;7.484;2023-01-25T07:00:42;102749.00;;;1.43;94.53
15193;BME280;7697;51.630;7.484;2023-01-25T07:05:44;102743.78;;;1.43;95.08
15193;BME280;7697;51.630;7.484;2023-01-25T07:10:52;102747.53;;;1.39;94.65
15193;BME280;7697;51.630;7.484;2023-01-25T07:15:57;102747.44;;;1.41;95.30
15193;BME280;7697;51.630;7.484;2023-01-25T07:21:03;102748.84;;;1.46;95.02
15193;BME280;7697;51.630;7.484;2023-01-25T07:26:13;102743.63;;;1.46;95.19
15193;BME280;7697;51.630;7.484;2023-01-25T07:31:17;102725.63;;;1.26;94.72
15193;BME280;7697;51.630;7.484;2023-01-25T07:36:19;102730.53;;;1.32;95.12
15193;BME280;7697;51.630;7.484;2023-01-25T07:41:21;102723.88;;;1.27;94.84
15193;BME280;7697;51.630;7.484;2023-01-25T07:46:25;102721.94;;;1.30;94.88
15193;BME280;7697;51.630;7.484;2023-01-25T07:51:27;102718.97;;;1.36;95.70
15193;BME280;7697;51.630;7.484;2023-01-25T07:56:32;102725.13;;;1.35;94.68
15193;BME280;7697;51.630;7.484;2023-01-25T08:01:35;102729.59;;;1.33;95.50
15193;BME280;7697;51.630;7.484;2023-01-25T08:06:37;102720.09;;;1.32;94.97
15193;BME280;7697;51.630;7.484;2023-01-25T08:11:40;102712.84;;;1.37;95.33
15193;BME280;7697;51.630;7.484;2023-01-25T08:16:43;102705.09;;;1.36;95.19
15193;BME280;7697;51.630;7.484;2023-01-25T08:21:45;102707.78;;;1.34;94.77
15193;BME280;7697;51.630;7.484;2023-01-25T08:26:47;102699.69;;;1.39;95.18
15193;BME280;7697;51.630;7.484;2023-01-25T08:31:50;102712.47;;;1.43;95.51
15193;BME280;7697;51.630;7.484;2023-01-25T08:36:51;102708.94;;;1.44;95.20
15193;BME280;7697;51.630;7.484;2023-01-25T08:41:53;102695.50;;;1.36;95.26
15193;BME280;7697;51.630;7.484;2023-01-25T08:46:56;102695.31;;;1.39;96.10
15193;BME280;7697;51.630;7.484;2023-01-25T08:51:58;102699.00;;;1.51;95.85
15193;BME280;7697;51.630;7.484;2023-01-25T08:57:00;102699.19;;;1.48;95.93
15193;BME280;7697;51.630;7.484;2023-01-25T09:02:03;102699.00;;;1.51;95.68
15193;BME280;7697;51.630;7.484;2023-01-25T09:07:05;102692.94;;;1.50;96.39
15193;BME280;7697;51.630;7.484;2023-01-25T09:12:08;102668.09;;;1.43;95.74
15193;BME280;7697;51.630;7.484;2023-01-25T09:17:11;102678.66;;;1.42;96.54
15193;BME280;7697;51.630;7.484;2023-01-25T09:22:13;102671.75;;;1.41;96.54
15193;BME280;7697;51.630;7.484;2023-01-25T09:27:14;102659.88;;;1.35;95.97
15193;BME280;7697;51.630;7.484;2023-01-25T09:32:17;102655.38;;;1.23;96.88
15193;BME280;7697;51.630;7.484;2023-01-25T09:37:19;102649.41;;;1.21;97.66
15193;BME280;7697;51.630;7.484;2023-01-25T09:42:34;102659.22;;;1.32;97.67
15193;BME280;7697;51.630;7.484;2023-01-25T09:47:47;102661.91;;;1.30;97.40
15193;BME280;7697;51.630;7.484;2023-01-25T09:53:12;102642.31;;;1.23;98.37
15193;BME280;7697;51.630;7.484;2023-01-25T09:58:19;102654.78;;;1.34;97.82
15193;BME280;7697;51.630;7.484;2023-01-25T10:03:25;102647.19;;;1.29;97.60
15193;BME280;7697;51.630;7.484;2023-01-25T10:08:31;102638.59;;;1.27;96.71
15193;BME280;7697;51.630;7.484;2023-01-25T10:13:33;102647.75;;;1.34;97.75
15193;BME280;7697;51.630;7.484;2023-01-25T10:18:41;102636.75;;;1.29;97.63
15193;BME280;7697;51.630;7.484;2023-01-25T10:29:20;102628.34;;;1.24;97.72
15193;BME280;7697;51.630;7.484;2023-01-25T10:34:28;102626.47;;;1.26;98.50
15193;BME280;7697;51.630;7.484;2023-01-25T10:39:32;102622.47;;;1.21;98.18
15193;BME280;7697;51.630;7.484;2023-01-25T10:44:39;102609.88;;;1.13;98.61
15193;BME280;7697;51.630;7.484;2023-01-25T10:49:45;102603.88;;;1.11;98.01
15193;BME280;7697;51.630;7.484;2023-01-25T10:55:04;102602.03;;;1.13;98.27
15193;BME280;7697;51.630;7.484;2023-01-25T11:05:31;102577.53;;;1.16;98.32
15193;BME280;7697;51.630;7.484;2023-01-25T11:10:34;102562.75;;;1.16;98.56
15193;BME280;7697;51.630;7.484;2023-01-25T11:15:37;102557.31;;;1.19;98.58
15193;BME280;7697;51.630;7.484;2023-01-25T11:20:40;102550.09;;;1.24;98.81
15193;BME280;7697;51.630;7.484;2023-01-25T11:25:41;102550.00;;;1.40;99.38
15193;BME280;7697;51.630;7.484;2023-01-25T11:30:43;102545.03;;;1.35;98.62
15193;BME280;7697;51.630;7.484;2023-01-25T11:36:08;102526.13;;;1.32;98.50
15193;BME280;7697;51.630;7.484;2023-01-25T11:41:18;102512.03;;;1.34;98.27
15193;BME280;7697;51.630;7.484;2023-01-25T11:46:30;102493.16;;;1.31;98.45
15193;BME280;7697;51.630;7.484;2023-01-25T11:51:40;102476.28;;;1.22;98.19
15193;BME280;7697;51.630;7.484;2023-01-25T11:56:51;102464.63;;;1.28;98.78
15193;BME280;7697;51.630;7.484;2023-01-25T12:02:06;102464.91;;;1.37;98.38
15193;BME280;7697;51.630;7.484;2023-01-25T12:07:21;102448.41;;;1.37;98.08
15193;BME280;7697;51.630;7.484;2023-01-25T12:12:31;102438.25;;;1.32;98.29
15193;BME280;7697;51.630;7.484;2023-01-25T12:17:48;102428.44;;;1.36;97.96
15193;BME280;7697;51.630;7.484;2023-01-25T12:23:06;102417.75;;;1.40;98.16
15193;BME280;7697;51.630;7.484;2023-01-25T12:28:17;102389.88;;;1.41;97.61
15193;BME280;7697;51.630;7.484;2023-01-25T12:33:23;102381.97;;;1.42;97.81
15193;BME280;7697;51.630;7.484;2023-01-25T12:38:34;102363.97;;;1.38;97.97
15193;BME280;7697;51.630;7.484;2023-01-25T12:43:43;102353.34;;;1.41;97.79
15193;BME280;7697;51.630;7.484;2023-01-25T12:48:49;102337.13;;;1.36;97.85
15193;BME280;7697;51.630;7.484;2023-01-25T12:53:54;102329.56;;;1.45;97.27
15193;BME280;7697;51.630;7.484;2023-01-25T12:59:01;102322.28;;;1.50;97.30
15193;BME280;7697;51.630;7.484;2023-01-25T13:04:17;102306.22;;;1.57;97.47
15193;BME280;7697;51.630;7.484;2023-01-25T13:09:27;102286.47;;;1.52;97.50
15193;BME280;7697;51.630;7.484;2023-01-25T13:14:35;102277.91;;;1.50;97.25
15193;BME280;7697;51.630;7.484;2023-01-25T13:19:39;102281.16;;;1.54;97.32
15193;BME280;7697;51.630;7.484;2023-01-25T13:25:17;102275.09;;;1.54;97.42
15193;BME280;7697;51.630;7.484;2023-01-25T13:30:29;102271.16;;;1.61;97.21
15193;BME280;7697;51.630;7.484;2023-01-25T13:35:42;102268.16;;;1.67;97.22
15193;BME280;7697;51.630;7.484;2023-01-25T13:41:04;102257.78;;;1.65;97.09
15193;BME280;7697;51.630;7.484;2023-01-25T13:46:14;102253.59;;;1.63;96.94
15193;BME280;7697;51.630;7.484;2023-01-25T13:51:16;102246.53;;;1.65;96.68
15193;BME280;7697;51.630;7.484;2023-01-25T13:56:27;102246.31;;;1.68;97.23
15193;BME280;7697;51.630;7.484;2023-01-25T14:01:30;102246.09;;;1.71;97.57
15193;BME280;7697;51.630;7.484;2023-01-25T14:06:37;102230.56;;;1.69;97.24
15193;BME280;7697;51.630;7.484;2023-01-25T14:11:45;102242.22;;;1.64;97.31
15193;BME280;7697;51.630;7.484;2023-01-25T14:17:01;102234.63;;;1.61;97.29
15193;BME280;7697;51.630;7.484;2023-01-25T14:22:18;102242.22;;;1.64;97.01
15193;BME280;7697;51.630;7.484;2023-01-25T14:27:22;102238.03;;;1.61;97.27
15193;BME280;7697;51.630;7.484;2023-01-25T14:32:25;102229.41;;;1.61;97.85
15193;BME280;7697;51.630;7.484;2023-01-25T14:37:27;102220.41;;;1.65;97.62
15193;BME280;7697;51.630;7.484;2023-01-25T14:42:31;102208.19;;;1.65;97.64
15193;BME280;7697;51.630;7.484;2023-01-25T14:47:34;102193.03;;;1.70;97.28
15193;BME280;7697;51.630;7.484;2023-01-25T14:52:38;102204.13;;;1.74;96.79
15193;BME280;7697;51.630;7.484;2023-01-25T14:57:42;102186.66;;;1.62;96.97
15193;BME280;7697;51.630;7.484;2023-01-25T15:02:47;102198.16;;;1.72;97.22
15193;BME280;7697;51.630;7.484;2023-01-25T15:07:51;102184.69;;;1.65;97.01
15193;BME280;7697;51.630;7.484;2023-01-25T15:13:00;102186.88;;;1.59;96.78
15193;BME280;7697;51.630;7.484;2023-01-25T15:18:02;102168.63;;;1.59;97.08
15193;BME280;7697;51.630;7.484;2023-01-25T15:23:20;102174.22;;;1.52;96.78
15193;BME280;7697;51.630;7.484;2023-01-25T15:28:26;102172.34;;;1.55;97.23
15193;BME280;7697;51.630;7.484;2023-01-25T15:33:28;102161.38;;;1.49;96.62
15193;BME280;7697;51.630;7.484;2023-01-25T15:38:31;102151.34;;;1.43;96.69
15193;BME280;7697;51.630;7.484;2023-01-25T15:43:34;102146.84;;;1.33;96.43
15193;BME280;7697;51.630;7.484;2023-01-25T15:48:39;102157.28;;;1.33;96.81
15193;BME280;7697;51.630;7.484;2023-01-25T15:53:42;102154.16;;;1.40;97.28
15193;BME280;7697;51.630;7.484;2023-01-25T15:58:48;102151.34;;;1.43;96.24
15193;BME280;7697;51.630;7.484;2023-01-25T16:03:50;102147.25;;;1.39;96.48
15193;BME280;7697;51.630;7.484;2023-01-25T16:08:52;102142.06;;;1.39;96.25
15193;BME280;7697;51.630;7.484;2023-01-25T16:13:55;102135.25;;;1.37;96.67
15193;BME280;7697;51.630;7.484;2023-01-25T16:18:57;102132.97;;;1.32;96.02
15193;BME280;7697;51.630;7.484;2023-01-25T16:23:59;102130.53;;;1.29;95.75
15193;BME280;7697;51.630;7.484;2023-01-25T16:29:02;102114.88;;;1.29;96.00
15193;BME280;7697;51.630;7.484;2023-01-25T16:34:03;102127.09;;;1.29;96.29
15193;BME280;7697;51.630;7.484;2023-01-25T16:39:07;102126.59;;;1.36;95.78
15193;BME280;7697;51.630;7.484;2023-01-25T16:44:11;102121.78;;;1.30;96.03
15193;BME280;7697;51.630;7.484;2023-01-25T16:49:15;102130.34;;;1.32;95.95
15193;BME280;7697;51.630;7.484;2023-01-25T16:54:18;102121.97;;;1.27;95.64
15193;BME280;7697;51.630;7.484;2023-01-25T16:59:22;102103.00;;;1.25;96.35
15193;BME280;7697;51.630;7.484;2023-01-25T17:04:24;102099.41;;;1.26;96.19
15193;BME280;7697;51.630;7.484;2023-01-25T17:09:26;102101.50;;;1.21;97.01
15193;BME280;7697;51.630;7.484;2023-01-25T17:14:29;102095.50;;;1.33;96.68
15193;BME280;7697;51.630;7.484;2023-01-25T17:19:31;102079.19;;;1.30;96.78
15193;BME280;7697;51.630;7.484;2023-01-25T17:24:33;102081.28;;;1.37;96.92
15193;BME280;7697;51.630;7.484;2023-01-25T17:29:37;102080.53;;;1.35;96.29
15193;BME280;7697;51.630;7.484;2023-01-25T17:34:38;102088.38;;;1.35;96.36
15193;BME280;7697;51.630;7.484;2023-01-25T17:39:40;102078.69;;;1.37;96.25
15193;BME280;7697;51.630;7.484;2023-01-25T17:44:43;102086.69;;;1.34;96.32
15193;BME280;7697;51.630;7.484;2023-01-25T17:49:45;102080.03;;;1.30;96.94
15193;BME280;7697;51.630;7.484;2023-01-25T17:54:47;102094.00;;;1.29;96.03
15193;BME280;7697;51.630;7.484;2023-01-25T17:59:50;102083.75;;;1.26;96.36
15193;BME280;7697;51.630;7.484;2023-01-25T18:04:53;102083.16;;;1.23;95.69
15193;BME280;7697;51.630;7.484;2023-01-25T18:09:57;102072.50;;;1.26;95.79
15193;BME280;7697;51.630;7.484;2023-01-25T18:15:00;102062.69;;;1.29;95.71
15193;BME280;7697;51.630;7.484;2023-01-25T18:20:02;102060.84;;;1.31;95.76
15193;BME280;7697;51.630;7.484;2023-01-25T18:25:09;102057.25;;;1.20;96.09
15193;BME280;7697;51.630;7.484;2023-01-25T18:30:33;102048.81;;;1.16;95.86
15193;BME280;7697;51.630;7.484;2023-01-25T18:35:36;102044.75;;;1.25;95.91
15193;BME280;7697;51.630;7.484;2023-01-25T18:40:37;102037.53;;;1.16;95.90
15193;BME280;7697;51.630;7.484;2023-01-25T18:45:42;102036.06;;;1.11;95.42
15193;BME280;7697;51.630;7.484;2023-01-25T18:50:44;102021.88;;;1.03;95.58
15193;BME280;7697;51.630;7.484;2023-01-25T18:55:57;102023.72;;;1.01;95.91
15193;BME280;7697;51.630;7.484;2023-01-25T19:01:04;102021.97;;;1.01;96.51
15193;BME280;7697;51.630;7.484;2023-01-25T19:06:07;101983.34;;;0.94;96.19
15193;BME280;7697;51.630;7.484;2023-01-25T19:11:10;101993.97;;;0.91;95.42
15193;BME280;7697;51.630;7.484;2023-01-25T19:16:15;101988.38;;;0.97;96.18
15193;BME280;7697;51.630;7.484;2023-01-25T19:21:20;101981.06;;;1.02;95.46
15193;BME280;7697;51.630;7.484;2023-01-25T19:26:23;101984.22;;;1.07;95.36
15193;BME280;7697;51.630;7.484;2023-01-25T19:31:27;101964.16;;;1.07;96.34
15193;BME280;7697;51.630;7.484;2023-01-25T19:36:33;101952.69;;;1.10;96.23
15193;BME280;7697;51.630;7.484;2023-01-25T19:41:36;101943.50;;;1.17;96.07
15193;BME280;7697;51.630;7.484;2023-01-25T19:46:40;101948.72;;;1.17;96.06
15193;BME280;7697;51.630;7.484;2023-01-25T19:51:42;101926.09;;;1.05;95.94
15193;BME280;7697;51.630;7.484;2023-01-25T19:56:48;101916.63;;;1.04;95.60
15193;BME280;7697;51.630;7.484;2023-01-25T20:01:52;101907.00;;;1.04;95.67
15193;BME280;7697;51.630;7.484;2023-01-25T20:06:54;101904.50;;;1.03;96.14
15193;BME280;7697;51.630;7.484;2023-01-25T20:11:56;101917.84;;;1.11;96.42
15193;BME280;7697;51.630;7.484;2023-01-25T20:17:01;101928.50;;;1.21;96.29
15193;BME280;7697;51.630;7.484;2023-01-25T20:22:03;101914.63;;;1.20;96.05
15193;BME280;7697;51.630;7.484;2023-01-25T20:27:04;101923.81;;;1.13;95.32
15193;BME280;7697;51.630;7.484;2023-01-25T20:32:08;101923.59;;;1.03;96.05
15193;BME280;7697;51.630;7.484;2023-01-25T20:37:11;101912.84;;;0.95;95.62
15193;BME280;7697;51.630;7.484;2023-01-25T20:42:12;101909.94;;;0.87;96.54
15193;BME280;7697;51.630;7.484;2023-01-25T20:47:15;101903.88;;;0.87;96.57
15193;BME280;7697;51.630;7.484;2023-01-25T20:52:17;101915.56;;;0.94;96.53
15193;BME280;7697;51.630;7.484;2023-01-25T20:57:19;101921.81;;;1.04;96.29
15193;BME280;7697;51.630;7.484;2023-01-25T21:02:22;101902.41;;;1.08;95.48
15193;BME280;7697;51.630;7.484;2023-01-25T21:07:24;101882.41;;;0.96;96.11
15193;BME280;7697;51.630;7.484;2023-01-25T21:12:26;101881.34;;;0.86;95.69
15193;BME280;7697;51.630;7.484;2023-01-25T21:17:32;101887.69;;;0.82;96.39
15193;BME280;7697;51.630;7.484;2023-01-25T21:22:33;101874.25;;;0.75;96.63
15193;BME280;7697;51.630;7.484;2023-01-25T21:27:35;101873.41;;;0.74;96.54
15193;BME280;7697;51.630;7.484;2023-01-25T21:32:38;101881.97;;;0.77;96.76
15193;BME280;7697;51.630;7.484;2023-01-25T21:37:40;101875.63;;;0.68;96.25
15193;BME280;7697;51.630;7.484;2023-01-25T21:42:43;101871.66;;;0.62;96.90
15193;BME280;7697;51.630;7.484;2023-01-25T21:47:46;101864.88;;;0.60;96.83
15193;BME280;7697;51.630;7.484;2023-01-25T21:52:48;101879.25;;;0.65;96.70
15193;BME280;7697;51.630;7.484;2023-01-25T21:57:50;101887.38;;;0.73;96.36
15193;BME280;7697;51.630;7.484;2023-01-25T22:02:53;101883.22;;;0.58;96.04
15193;BME280;7697;51.630;7.484;2023-01-25T22:07:55;101882.78;;;0.52;96.91
15193;BME280;7697;51.630;7.484;2023-01-25T22:12:58;101883.31;;;0.44;96.47
15193;BME280;7697;51.630;7.484;2023-01-25T22:18:01;101879.41;;;0.37;96.41
15193;BME280;7697;51.630;7.484;2023-01-25T22:23:03;101864.19;;;0.31;97.30
15193;BME280;7697;51.630;7.484;2023-01-25T22:28:11;101870.25;;;0.31;96.90
15193;BME280;7697;51.630;7.484;2023-01-25T22:33:16;101879.50;;;0.23;96.60
15193;BME280;7697;51.630;7.484;2023-01-25T22:38:20;101871.50;;;0.26;97.05
15193;BME280;7697;51.630;7.484;2023-01-25T22:43:22;101862.19;;;0.22;96.52
15193;BME280;7697;51.630;7.484;2023-01-25T22:48:26;101866.22;;;0.13;97.20
15193;BME280;7697;51.630;7.484;2023-01-25T22:53:28;101848.84;;;0.14;97.28
15193;BME280;7697;51.630;7.484;2023-01-25T22:58:30;101846.06;;;0.17;97.05
15193;BME280;7697;51.630;7.484;2023-01-25T23:03:33;101833.31;;;0.12;96.47
15193;BME280;7697;51.630;7.484;2023-01-25T23:08:35;101845.06;;;0.05;96.19
15193;BME280;7697;51.630;7.484;2023-01-25T23:13:37;101823.91;;;-0.03;96.80
15193;BME280;7697;51.630;7.484;2023-01-25T23:18:41;101817.56;;;0.01;96.78
15193;BME280;7697;51.630;7.484;2023-01-25T23:23:52;101820.63;;;0.08;96.97
15193;BME280;7697;51.630;7.484;2023-01-25T23:28:56;101825.41;;;0.14;96.87
15193;BME280;7697;51.630;7.484;2023-01-25T23:34:01;101827.06;;;0.15;96.75
15193;BME280;7697;51.630;7.484;2023-01-25T23:39:03;101809.38;;;0.20;97.38
15193;BME280;7697;51.630;7.484;2023-01-25T23:44:05;101805.22;;;0.30;97.97
15193;BME280;7697;51.630;7.484;2023-01-25T23:49:10;101783.53;;;0.29;96.60
15193;BME280;7697;51.630;7.484;2023-01-25T23:54:11;101784.38;;;0.30;97.44
15193;BME280;7697;51.630;7.484;2023-01-25T23:59:13;101761.47;;;0.22;96.72
